Kemptville, Canada
Current Conditions -  °F | °C
As of 1:00 AM on Thursday 29 Jan 2015 (Local Time) from CYOW Reporting Station
Clear Clear  
Wind Chill: -21°   Ceiling: Unl
Heat Index: -16°   Visibility: 15mi
Dew Point: -21°   Wind: 5mph
Humidity: 66%   Direction: 160°SSE
Pressure: 30.27"   Gusts: NA
Location:  45.02°N, 75.65°W
Report Text: CYOW 290600Z 16004KT 15SM SKC M16/M21 A3027 RMK SLP262
Loading
Personal Weather Stations






























Interactive Weather Map New forecast layout! Learn more

10-Day Weather Forecast

Advertisements
Track Severe Weather on mobile